createdAt,value
2022-08-22T00:01:11.442Z,5.78
2022-08-22T00:04:22.945Z,5.10
2022-08-22T00:07:39.774Z,5.13
2022-08-22T00:11:12.444Z,5.85
2022-08-22T00:14:19.966Z,5.50
2022-08-22T00:17:29.707Z,5.90
2022-08-22T00:20:48.627Z,6.63
2022-08-22T00:24:17.657Z,4.95
2022-08-22T00:27:26.872Z,7.85
2022-08-22T00:30:30.465Z,7.53
2022-08-22T00:34:03.569Z,5.20
2022-08-22T00:37:22.372Z,5.78
2022-08-22T00:40:38.953Z,6.10
2022-08-22T00:44:04.819Z,6.03
2022-08-22T00:47:18.478Z,6.15
2022-08-22T00:50:26.495Z,7.03
2022-08-22T00:53:57.271Z,5.95
2022-08-22T00:57:08.072Z,6.07
2022-08-22T01:00:16.278Z,5.85
2022-08-22T01:03:47.288Z,5.10
2022-08-22T01:07:13.760Z,5.35
2022-08-22T01:10:37.756Z,5.03
2022-08-22T01:13:54.970Z,4.85
2022-08-22T01:17:05.841Z,5.40
2022-08-22T01:20:41.858Z,4.85
2022-08-22T01:24:05.369Z,4.63
2022-08-22T01:27:28.200Z,5.43
2022-08-22T01:31:07.442Z,4.60
2022-08-22T01:34:36.335Z,4.47
2022-08-22T01:38:22.548Z,4.85
2022-08-22T01:41:41.412Z,4.70
2022-08-22T01:45:11.263Z,4.63
2022-08-22T01:48:21.559Z,4.60
2022-08-22T01:51:24.787Z,4.90
2022-08-22T01:54:35.922Z,4.53
2022-08-22T01:58:00.780Z,4.13
2022-08-22T02:01:33.986Z,4.68
2022-08-22T02:04:48.395Z,3.75
2022-08-22T02:07:50.245Z,3.65
2022-08-22T02:11:08.919Z,4.40
2022-08-22T02:14:36.601Z,3.85
2022-08-22T02:18:22.898Z,4.55
2022-08-22T02:21:39.964Z,3.80
2022-08-22T02:24:51.083Z,4.07
2022-08-22T02:28:20.752Z,5.38
2022-08-22T02:31:40.369Z,3.47
2022-08-22T02:35:01.468Z,3.50
2022-08-22T02:38:40.989Z,3.70
2022-08-22T02:42:07.127Z,3.92
2022-08-22T02:45:41.917Z,4.50
2022-08-22T02:49:07.612Z,3.97
2022-08-22T02:52:12.481Z,4.28
2022-08-22T02:55:21.353Z,3.83
2022-08-22T02:58:59.302Z,3.83
2022-08-22T03:02:37.716Z,4.45
2022-08-22T03:05:39.966Z,4.13
2022-08-22T03:09:07.644Z,4.50
2022-08-22T03:12:21.700Z,3.97
2022-08-22T03:15:49.320Z,4.07
2022-08-22T03:19:06.420Z,5.00
2022-08-22T03:22:36.250Z,5.50
2022-08-22T03:26:08.791Z,5.80
2022-08-22T03:29:18.600Z,4.70
2022-08-22T03:32:24.000Z,4.82
2022-08-22T03:35:44.301Z,6.15
2022-08-22T03:39:19.176Z,5.50
2022-08-22T03:42:33.056Z,5.93
2022-08-22T03:45:41.001Z,6.00
2022-08-22T03:48:45.683Z,6.00
2022-08-22T03:51:53.595Z,4.45
2022-08-22T03:55:14.251Z,5.18
2022-08-22T03:58:53.366Z,4.57
2022-08-22T04:02:42.915Z,5.43
2022-08-22T04:05:58.270Z,5.35
2022-08-22T04:09:18.318Z,5.18
2022-08-22T04:12:29.205Z,4.05
2022-08-22T04:15:31.850Z,5.32
2022-08-22T04:19:12.375Z,6.07
2022-08-22T04:22:17.088Z,5.53
2022-08-22T04:25:25.696Z,5.55
2022-08-22T04:28:37.894Z,6.07
2022-08-22T04:31:51.425Z,5.20
2022-08-22T04:35:02.392Z,6.80
2022-08-22T04:38:40.461Z,6.18
2022-08-22T04:42:00.730Z,3.95
2022-08-22T04:45:17.076Z,5.90
2022-08-22T04:48:34.514Z,5.03
2022-08-22T04:51:48.909Z,4.93
2022-08-22T04:55:20.955Z,8.65
2022-08-22T04:58:34.642Z,6.75
2022-08-22T05:01:46.794Z,7.40
2022-08-22T05:05:04.334Z,7.07
2022-08-22T05:08:11.833Z,6.10
2022-08-22T05:11:19.170Z,7.30
2022-08-22T05:15:19.019Z,7.30
2022-08-22T05:18:32.556Z,6.57
2022-08-22T05:21:38.728Z,7.18
2022-08-22T05:24:46.484Z,10.00
2022-08-22T05:27:53.159Z,7.68
2022-08-22T05:30:58.844Z,7.97
2022-08-22T05:34:11.397Z,8.30
2022-08-22T05:37:24.759Z,6.80
2022-08-22T05:43:36.650Z,9.05
2022-08-22T05:46:44.534Z,7.65
2022-08-22T05:50:23.842Z,9.02
2022-08-22T05:53:34.903Z,8.95
2022-08-22T05:56:42.306Z,9.07
2022-08-22T05:59:46.724Z,8.70
2022-08-22T06:03:15.292Z,9.88
2022-08-22T06:06:19.454Z,9.38
2022-08-22T06:09:39.495Z,10.65
2022-08-22T06:13:16.213Z,10.55
2022-08-22T06:16:47.590Z,10.48
2022-08-22T06:19:53.644Z,12.15
2022-08-22T06:23:00.381Z,11.38
2022-08-22T06:26:03.943Z,10.90
2022-08-22T06:29:08.614Z,11.75
2022-08-22T06:32:44.374Z,12.63
2022-08-22T06:36:21.222Z,11.10
2022-08-22T06:39:36.687Z,11.13
2022-08-22T06:42:43.445Z,12.32
2022-08-22T06:45:45.750Z,12.88
2022-08-22T06:48:48.771Z,13.50
2022-08-22T06:55:00.479Z,13.00
2022-08-22T06:58:11.896Z,14.43
2022-08-22T07:01:27.301Z,12.48
2022-08-22T07:04:30.372Z,14.50
2022-08-22T07:10:34.602Z,13.35
2022-08-22T07:13:39.403Z,12.40
2022-08-22T07:17:16.313Z,13.82
2022-08-22T07:20:25.834Z,14.05
2022-08-22T07:23:36.125Z,17.17
2022-08-22T07:27:05.925Z,13.48
2022-08-22T07:30:14.785Z,14.80
2022-08-22T07:33:44.086Z,14.93
2022-08-22T07:37:01.604Z,15.93
2022-08-22T07:40:20.387Z,15.10
2022-08-22T07:43:48.685Z,15.95
2022-08-22T07:47:02.362Z,13.23
2022-08-22T07:50:08.489Z,13.93
2022-08-22T07:53:28.488Z,12.95
2022-08-22T07:56:52.242Z,15.10
2022-08-22T07:59:58.172Z,15.48
2022-08-22T08:03:05.800Z,15.13
2022-08-22T08:06:09.486Z,12.45
2022-08-22T08:09:17.465Z,12.90
2022-08-22T08:12:26.163Z,14.57
2022-08-22T08:15:28.115Z,13.88
2022-08-22T08:18:34.127Z,14.27
2022-08-22T08:21:53.530Z,16.73
2022-08-22T08:25:00.828Z,16.42
2022-08-22T08:28:22.871Z,18.63
2022-08-22T08:31:32.046Z,16.65
2022-08-22T08:34:35.427Z,15.48
2022-08-22T08:38:05.061Z,17.00
2022-08-22T08:41:28.201Z,15.73
2022-08-22T08:44:46.060Z,17.92
2022-08-22T08:48:21.100Z,17.23
2022-08-22T08:51:43.233Z,15.07
2022-08-22T08:55:19.650Z,17.75
2022-08-22T08:58:37.994Z,16.33
2022-08-22T09:02:05.476Z,20.65
2022-08-22T09:05:25.437Z,19.60
2022-08-22T09:09:00.144Z,20.20
2022-08-22T09:12:08.575Z,17.17
2022-08-22T09:15:58.757Z,21.67
2022-08-22T09:19:47.422Z,20.15
2022-08-22T09:23:33.883Z,20.15
2022-08-22T09:26:40.393Z,17.10
2022-08-22T09:30:04.702Z,17.15
2022-08-22T09:33:15.235Z,28.35
2022-08-22T09:36:54.434Z,23.42
2022-08-22T09:40:06.763Z,20.70
2022-08-22T09:43:33.750Z,18.53
2022-08-22T09:46:50.139Z,15.00
2022-08-22T09:50:24.680Z,18.20
2022-08-22T09:54:03.534Z,19.42
2022-08-22T09:57:29.716Z,18.35
2022-08-22T10:00:38.429Z,18.52
2022-08-22T10:03:46.168Z,19.58
2022-08-22T10:07:08.542Z,18.58
2022-08-22T10:10:22.439Z,16.95
2022-08-22T10:13:42.025Z,20.30
2022-08-22T10:17:05.372Z,19.95
2022-08-22T10:20:27.696Z,20.75
2022-08-22T10:23:45.956Z,18.08
2022-08-22T10:26:54.587Z,18.83
2022-08-22T10:30:10.811Z,19.63
2022-08-22T10:33:35.791Z,21.15
2022-08-22T10:37:02.906Z,17.33
2022-08-22T10:40:13.378Z,21.08
2022-08-22T10:43:28.875Z,19.80
2022-08-22T10:46:36.286Z,17.48
2022-08-22T10:49:51.236Z,20.65
2022-08-22T10:53:29.375Z,19.38
2022-08-22T10:56:37.260Z,20.73
2022-08-22T11:00:22.532Z,19.70
2022-08-22T11:04:02.303Z,20.02
2022-08-22T11:07:28.994Z,20.10
2022-08-22T11:10:52.210Z,20.70
2022-08-22T11:17:31.185Z,20.45
2022-08-22T11:20:58.497Z,18.50
2022-08-22T11:24:34.928Z,15.85
2022-08-22T11:27:51.986Z,19.45
2022-08-22T11:31:13.651Z,19.20
2022-08-22T11:35:11.219Z,17.42
2022-08-22T11:38:32.625Z,18.15
2022-08-22T11:41:45.487Z,19.27
2022-08-22T11:45:05.997Z,18.88
2022-08-22T11:48:25.197Z,16.63
2022-08-22T11:51:51.863Z,17.75
2022-08-22T11:55:50.376Z,16.45
2022-08-22T11:59:12.600Z,17.02
2022-08-22T12:02:27.038Z,17.05
2022-08-22T12:05:44.450Z,15.40
2022-08-22T12:08:51.498Z,14.05
2022-08-22T12:12:12.768Z,15.75
2022-08-22T12:15:37.641Z,14.85
2022-08-22T12:19:06.332Z,14.00
2022-08-22T12:22:34.948Z,15.10
2022-08-22T12:25:45.483Z,13.63
2022-08-22T12:29:33.585Z,13.40
2022-08-22T12:33:01.643Z,14.75
2022-08-22T12:36:40.948Z,16.33
2022-08-22T12:39:55.270Z,13.13
2022-08-22T12:43:54.601Z,14.27
2022-08-22T12:47:14.819Z,12.60
2022-08-22T12:50:58.023Z,12.68
2022-08-22T12:54:35.342Z,10.30
2022-08-22T12:57:58.986Z,12.75
2022-08-22T13:01:11.356Z,14.02
2022-08-22T13:04:32.754Z,12.88
2022-08-22T13:07:38.423Z,13.52
2022-08-22T13:10:48.003Z,11.30
2022-08-22T13:13:56.586Z,11.07
2022-08-22T13:17:23.897Z,9.70
2022-08-22T13:20:37.621Z,11.70
2022-08-22T13:23:51.710Z,12.50
2022-08-22T13:27:00.658Z,11.40
2022-08-22T13:30:12.384Z,11.65
2022-08-22T13:33:23.292Z,11.60
2022-08-22T13:36:26.938Z,11.65
2022-08-22T13:39:42.790Z,11.55
2022-08-22T13:42:54.205Z,14.05
2022-08-22T13:46:01.889Z,10.60
2022-08-22T13:49:10.060Z,12.45
2022-08-22T13:52:30.299Z,11.00
2022-08-22T13:55:44.748Z,10.90
2022-08-22T13:58:57.244Z,8.90
2022-08-22T14:02:17.805Z,12.57
2022-08-22T14:05:31.461Z,12.10
2022-08-22T14:08:36.625Z,10.27
2022-08-22T14:11:50.068Z,10.90
2022-08-22T14:15:01.303Z,12.10
2022-08-22T14:18:15.407Z,12.45
2022-08-22T14:21:40.487Z,10.65
2022-08-22T14:24:55.625Z,10.10
2022-08-22T14:28:03.014Z,9.63
2022-08-22T14:31:14.414Z,11.13
2022-08-22T14:34:17.410Z,10.60
2022-08-22T14:37:35.244Z,10.25
2022-08-22T14:40:42.048Z,9.93
2022-08-22T14:44:05.389Z,10.43
2022-08-22T14:47:32.448Z,13.13
2022-08-22T14:50:37.274Z,10.85
2022-08-22T14:53:40.557Z,10.38
2022-08-22T14:56:44.772Z,11.38
2022-08-22T14:59:53.062Z,10.88
2022-08-22T15:03:24.566Z,10.68
2022-08-22T15:06:50.923Z,9.65
2022-08-22T15:10:03.299Z,10.45
2022-08-22T15:13:08.527Z,11.32
2022-08-22T15:16:22.199Z,10.40
2022-08-22T15:19:42.933Z,8.70
2022-08-22T15:22:47.258Z,7.70
2022-08-22T15:26:06.956Z,8.40
2022-08-22T15:29:23.232Z,10.68
2022-08-22T15:32:31.953Z,9.52
2022-08-22T15:35:38.986Z,8.63
2022-08-22T15:38:48.077Z,11.82
2022-08-22T15:41:51.065Z,12.00
2022-08-22T15:44:54.973Z,12.02
2022-08-22T15:47:58.462Z,11.10
2022-08-22T15:51:01.870Z,11.13
2022-08-22T15:54:24.837Z,11.07
2022-08-22T15:57:35.370Z,9.30
2022-08-22T16:01:04.778Z,9.55
2022-08-22T16:04:43.792Z,8.05
2022-08-22T16:07:51.520Z,8.98
2022-08-22T16:11:20.515Z,10.07
2022-08-22T16:14:34.900Z,8.77
2022-08-22T16:17:45.403Z,8.07
2022-08-22T16:20:54.313Z,11.07
2022-08-22T16:23:59.181Z,7.70
2022-08-22T16:27:18.974Z,8.50
2022-08-22T16:30:33.630Z,7.28
2022-08-22T16:33:38.991Z,8.48
2022-08-22T16:36:46.721Z,8.00
2022-08-22T16:40:18.487Z,10.20
2022-08-22T16:43:20.909Z,8.80
2022-08-22T16:46:33.210Z,8.27
2022-08-22T16:49:55.808Z,8.20
2022-08-22T16:53:03.638Z,7.78
2022-08-22T16:56:22.541Z,8.20
2022-08-22T16:59:49.691Z,7.95
2022-08-22T17:03:06.370Z,8.60
2022-08-22T17:06:41.815Z,7.45
2022-08-22T17:10:11.608Z,9.07
2022-08-22T17:13:26.300Z,8.27
2022-08-22T17:16:37.524Z,6.70
2022-08-22T17:19:46.728Z,7.60
2022-08-22T17:23:08.633Z,6.85
2022-08-22T17:26:34.711Z,8.23
2022-08-22T17:29:53.727Z,10.43
2022-08-22T17:33:01.473Z,10.60
2022-08-22T17:36:26.218Z,10.45
2022-08-22T17:39:56.043Z,9.07
2022-08-22T17:43:01.178Z,9.07
2022-08-22T17:46:29.859Z,10.07
2022-08-22T17:50:00.768Z,8.77
2022-08-22T17:53:09.102Z,8.65
2022-08-22T17:56:18.991Z,8.18
2022-08-22T17:59:31.256Z,9.38
2022-08-22T18:02:55.328Z,8.55
2022-08-22T18:06:06.006Z,8.88
2022-08-22T18:09:19.753Z,9.60
2022-08-22T18:12:34.377Z,8.25
2022-08-22T18:15:42.745Z,8.45
2022-08-22T18:19:22.390Z,9.23
2022-08-22T18:22:33.528Z,9.43
2022-08-22T18:25:43.582Z,7.25
2022-08-22T18:29:00.331Z,7.35
2022-08-22T18:32:33.101Z,9.32
2022-08-22T18:35:54.543Z,8.27
2022-08-22T18:38:59.623Z,6.63
2022-08-22T18:42:18.360Z,7.55
2022-08-22T18:45:46.052Z,7.35
2022-08-22T18:49:13.674Z,8.25
2022-08-22T18:52:10.078Z,6.72
2022-08-22T18:55:20.872Z,7.00
2022-08-22T18:58:44.478Z,6.90
2022-08-22T19:02:04.970Z,7.40
2022-08-22T19:05:34.174Z,7.05
2022-08-22T19:08:52.982Z,7.45
2022-08-22T19:12:32.108Z,7.50
2022-08-22T19:15:55.685Z,7.32
2022-08-22T19:22:19.661Z,7.13
2022-08-22T19:25:28.095Z,7.38
2022-08-22T19:28:36.942Z,6.03
2022-08-22T19:31:41.237Z,6.60
2022-08-22T19:34:47.841Z,7.25
2022-08-22T19:38:10.631Z,6.60
2022-08-22T19:41:41.547Z,5.57
2022-08-22T19:44:46.462Z,7.07
2022-08-22T19:48:01.010Z,6.28
2022-08-22T19:51:14.082Z,7.47
2022-08-22T19:54:23.114Z,5.78
2022-08-22T19:57:40.118Z,4.90
2022-08-22T20:01:12.663Z,5.72
2022-08-22T20:05:01.933Z,5.18
2022-08-22T20:08:21.757Z,5.65
2022-08-22T20:11:51.799Z,6.30
2022-08-22T20:14:54.373Z,5.95
2022-08-22T20:18:12.250Z,6.07
2022-08-22T20:21:40.082Z,5.07
2022-08-22T20:24:56.170Z,6.00
2022-08-22T20:28:05.368Z,5.47
2022-08-22T20:31:19.159Z,5.40
2022-08-22T20:34:26.726Z,5.20
2022-08-22T20:41:24.525Z,6.35
2022-08-22T20:44:34.707Z,5.50
2022-08-22T20:47:41.291Z,5.70
2022-08-22T20:50:44.393Z,5.28
2022-08-22T20:54:00.400Z,5.70
2022-08-22T20:57:14.022Z,5.22
2022-08-22T21:00:23.165Z,4.70
2022-08-22T21:03:40.970Z,5.60
2022-08-22T21:06:43.527Z,5.38
2022-08-22T21:10:21.724Z,5.75
2022-08-22T21:13:36.629Z,5.40
2022-08-22T21:16:38.509Z,3.95
2022-08-22T21:19:40.448Z,5.22
2022-08-22T21:22:42.552Z,5.03
2022-08-22T21:25:49.128Z,5.15
2022-08-22T21:29:05.267Z,4.75
2022-08-22T21:32:14.821Z,5.18
2022-08-22T21:35:30.720Z,4.20
2022-08-22T21:38:33.036Z,4.70
2022-08-22T21:41:40.361Z,5.30
2022-08-22T21:44:53.984Z,4.65
2022-08-22T21:47:56.973Z,4.97
2022-08-22T21:54:20.841Z,4.82
2022-08-22T22:00:48.943Z,5.60
2022-08-22T22:03:52.593Z,4.15
2022-08-22T22:06:54.606Z,5.03
2022-08-22T22:09:57.054Z,5.53
2022-08-22T22:12:59.734Z,5.07
2022-08-22T22:16:01.867Z,5.78
2022-08-22T22:19:07.756Z,6.32
2022-08-22T22:22:09.709Z,4.63
2022-08-22T22:25:40.645Z,5.05
2022-08-22T22:28:47.555Z,5.20
2022-08-22T22:31:49.567Z,5.30
2022-08-22T22:34:51.501Z,5.45
2022-08-22T22:37:54.401Z,5.00
2022-08-22T22:40:56.486Z,4.78
2022-08-22T22:43:58.438Z,5.07
2022-08-22T22:47:04.830Z,5.03
2022-08-22T22:50:07.367Z,4.60
2022-08-22T22:53:09.955Z,6.30
2022-08-22T22:56:15.843Z,5.15
2022-08-22T22:59:18.039Z,5.35
2022-08-22T23:02:26.569Z,5.90
2022-08-22T23:05:31.985Z,4.63
2022-08-22T23:08:33.892Z,5.43
2022-08-22T23:11:35.948Z,4.80
2022-08-22T23:14:37.851Z,5.00
2022-08-22T23:17:43.195Z,5.03
2022-08-22T23:20:45.094Z,5.25
2022-08-22T23:23:48.652Z,5.70
2022-08-22T23:26:50.602Z,4.95
2022-08-22T23:29:52.900Z,5.10
2022-08-22T23:32:55.739Z,4.77
2022-08-22T23:35:59.959Z,4.88
2022-08-22T23:39:02.866Z,4.85
2022-08-22T23:42:07.189Z,5.05
2022-08-22T23:45:09.511Z,5.32
2022-08-22T23:48:11.478Z,5.40
2022-08-22T23:51:15.845Z,6.38
2022-08-22T23:54:19.530Z,5.63
2022-08-22T23:57:26.564Z,5.80
